Hamlet, Indiana
Current Conditions -  °F | °C
As of 11:55 AM on Friday 24 Oct 2014 (Local Time) from KOXI Reporting Station
Clear Clear  
Wind Chill: 60°   Ceiling: Unl
Heat Index: 60°   Visibility: 10mi
Dew Point: 47°   Wind: 5mph
Humidity: 64%   Direction: 180°S
Pressure: 30.05"   Gusts: NA
Location:  41.38°N, 86.58°W
Report Text: KOXI 241655Z AUTO 18004KT 10SM CLR 15/09 A3005 RMK AO1 T01530086
Loading
Personal Weather Stations






























Interactive Weather Map
Tropical Storm Tracking
New forecast layout! Learn more

10-Day Weather Forecast

Advertisements
Track Severe Weather on mobile